Portada
METAR-TAF:

METAR-TAF

Aeropuertos :

Mécheria, Argelia

latitud: 34-56N, longitud: 000-26W, altitud: 1149 m

Observación

El informe se hizo hace 8 horas y 44 minutos, a las 18:00 UTC
Viento 12 kt del sur
Temperatura 9°C
Humedad 49%
Presión 1022 hPa
Visibilidad 10 km o más
Nubes dispersas a una altura de 3300 ft

METAR: DAAY 231800Z 18012KT 9999 SCT033 09/M01 Q1022

Hora: 03:44 (02:44 UTC)

Pronóstico

El informe se hizo hace 9 horas y 44 minutos, a las 17:00 UTC
Pronóstico válido del 23 a las 18 UTC al 24 a las 03 UTC
Viento 15 kt del sur-suroeste
Visibilidad 10 km o más
Nubes dispersas a una altura de 3300 ft
Evolucionando progresivamente
del 23 a las 20 UTC al 23 a las 22 UTC
Viento 5 kt del sur

TAF: DAAY 231700Z 2318/2403 20015KT 9999 SCT033 BECMG 2320/2322 18005KT

Observaciones y pronósticos meteorológicos de más de 4000 aeropuertos (mensajes METAR y TAF).

Los puntos amarillos y rojos representan las estaciones disponibles.

Ponga el ratón en el punto deseado para ver el nombre de la estación.

Haga clic para ver las observaciones y los pronósticos meteorológicos.

Para cambiar el mapa : haga clic en los botones verdes con una cruz de color negro para hacer un zoom, en el botón verde con un guión para alejar o en las flechas verdes para mapas adyacentes.


METAR-TAF: